This is the latest recevied weather packets stored in our database for station/object OK2ZAW-18. If no packets are shown the sender has not sent any weather packets the latest 10 day(s).
| Time | Temp. | Humidity | Pressure | Rain* | Wind** | Luminosity | Snow |
|---|---|---|---|---|---|---|---|
| 1777845107 | 25° C | 33% | 944.6 hPa | - | - | - | - |
| 1777844207 | 25° C | 33% | 944.7 hPa | - | - | - | - |
| 1777843315 | 25.56° C | 33% | 944.6 hPa | - | - | - | - |
| 1777842407 | 25.56° C | 33% | 944.7 hPa | - | - | - | - |
| 1777841507 | 25.56° C | 33% | 944.7 hPa | - | - | - | - |
| 1777840607 | 25.56° C | 33% | 944.8 hPa | - | - | - | - |
| 1777839707 | 25.56° C | 33% | 944.7 hPa | - | - | - | - |
| 1777837907 | 25.56° C | 33% | 944.8 hPa | - | - | - | - |
| 1777837007 | 25.56° C | 33% | 945 hPa | - | - | - | - |
| 1777836106 | 25.56° C | 32% | 944.8 hPa | - | - | - | - |
| 1777833406 | 26.11° C | 31% | 944.7 hPa | - | - | - | - |
| 1777830705 | 26.67° C | 29% | 944.6 hPa | - | - | - | - |
| 1777829805 | 27.22° C | 29% | 944.5 hPa | - | - | - | - |
| 1777828005 | 27.78° C | 28% | 944.7 hPa | - | - | - | - |
| 1777827105 | 28.33° C | 27% | 944.6 hPa | - | - | - | - |
| 1777825305 | 29.44° C | 25% | 944.6 hPa | - | - | - | - |
| 1777824405 | 30° C | 24% | 944.6 hPa | - | - | - | - |
| 1777823500 | 28.89° C | 25% | 944.8 hPa | - | - | - | - |
| 1777822600 | 29.44° C | 24% | 944.8 hPa | - | - | - | - |
| 1777821705 | 30° C | 23% | 944.9 hPa | - | - | - | - |
| 1777820805 | 29.44° C | 22% | 945.1 hPa | - | - | - | - |
| 1777819900 | 29.44° C | 21% | 945.1 hPa | - | - | - | - |
| 1777819001 | 38.33° C | 13% | 945.6 hPa | - | - | - | - |
| 1777817199 | 31.11° C | 19% | 945.5 hPa | - | - | - | - |
| 1777813595 | 27.22° C | 25% | 946 hPa | - | - | - | - |
* Rain since midnight (hover to see other rain measurements)
** Current wind speed in m/s (hover to see current wind gust speed)